Time;durP1;ratioP1;P1;durP2;ratioP2;P2;SDS_P1;SDS_P2;PMS_P1;PMS_P2;Temp;Humidity;BMP_temperature;BMP_pressure;BME280_temperature;BME280_humidity;BME280_pressure;Samples;Min_cycle;Max_cycle;Signal;HPM_P1;HPM_P2
2024/02/05 00:02:00;;;;;;;13.97;9.10;;;4.20;99.90;;;;;;5001850;28;20200;-64
2024/02/05 00:04:27;;;;;;;12.20;9.43;;;;;;;;;;4992399;28;20236;-64
2024/02/05 00:06:54;;;;;;;15.53;10.07;;;;;;;;;;4992908;28;20207;-64
2024/02/05 00:09:21;;;;;;;17.63;12.80;;;;;;;;;;4994900;28;20205;-64
2024/02/05 00:11:50;;;;;;;24.10;12.07;;;;;;;;;;4992325;28;20268;-64
2024/02/05 00:14:17;;;;;;;15.30;12.07;;;;;;;;;;4991568;28;20234;-64
2024/02/05 00:16:44;;;;;;;16.13;11.60;;;;;;;;;;4985761;28;20716;-63
2024/02/05 00:19:12;;;;;;;17.77;11.40;;;;;;;;;;4973165;28;20258;-63
2024/02/05 00:21:39;;;;;;;16.67;11.37;;;;;;;;;;4972959;28;20233;-63
2024/02/05 00:24:07;;;;;;;16.43;11.47;;;;;;;;;;4972483;28;20226;-63
2024/02/05 00:26:35;;;;;;;18.00;11.73;;;;;;;;;;4973917;28;20250;-63
2024/02/05 00:29:05;;;;;;;17.27;11.93;;;;;;;;;;4972670;28;20213;-63
2024/02/05 00:31:32;;;;;;;18.57;10.93;;;;;;;;;;4972545;28;20228;-64
2024/02/05 00:33:59;;;;;;;19.20;11.83;;;;;;;;;;4993382;28;20271;-64
2024/02/05 00:36:26;;;;;;;16.87;11.53;;;;;;;;;;5011804;28;20212;-64
2024/02/05 00:38:54;;;;;;;13.77;10.13;;;;;;;;;;5011742;28;20272;-64
2024/02/05 00:41:21;;;;;;;12.03;9.50;;;;;;;;;;5011642;28;20196;-64
2024/02/05 00:43:48;;;;;;;15.67;9.77;;;;;;;;;;5010633;28;20232;-64
2024/02/05 00:46:22;;;;;;;14.37;10.73;;;;;;;;;;5011751;28;20200;-64
2024/02/05 00:48:50;;;;;;;14.93;10.73;;;;;;;;;;5011531;28;20687;-64
2024/02/05 00:51:17;;;;;;;17.03;10.90;;;;;;;;;;4994445;28;20252;-64
2024/02/05 00:53:44;;;;;;;14.70;11.27;;;;;;;;;;5010573;28;20287;-64
2024/02/05 00:56:11;;;;;;;13.23;9.67;;;;;;;;;;5014602;28;20258;-64
2024/02/05 00:58:39;;;;;;;17.17;10.73;;;;;;;;;;5015322;28;20206;-64
2024/02/05 01:01:06;;;;;;;17.43;9.93;;;;;;;;;;5015228;28;20254;-64
2024/02/05 01:03:34;;;;;;;15.87;9.83;;;;;;;;;;5014223;28;20280;-64
2024/02/05 01:06:03;;;;;;;13.10;11.43;;;;;;;;;;5013991;28;20663;-64
2024/02/05 01:08:31;;;;;;;15.13;10.27;;;;;;;;;;5015031;28;20213;-64
2024/02/05 01:10:58;;;;;;;15.73;10.37;;;3.40;99.90;;;;;;5015185;28;20213;-64
2024/02/05 01:13:25;;;;;;;13.20;10.03;;;3.10;99.90;;;;;;5014162;28;20283;-63
2024/02/05 01:15:53;;;;;;;13.20;9.50;;;;;;;;;;5014999;28;20292;-64
2024/02/05 01:18:20;;;;;;;17.80;10.77;;;;;;;;;;5014791;28;20204;-64
2024/02/05 01:20:49;;;;;;;13.47;11.07;;;;;;;;;;5014858;28;20288;-64
2024/02/05 01:23:17;;;;;;;18.80;11.50;;;;;;;;;;5012641;28;20784;-64
2024/02/05 01:25:44;;;;;;;13.83;10.03;;;;;;;;;;5014514;28;20251;-64
2024/02/05 01:28:11;;;;;;;14.13;10.37;;;;;;;;;;5014917;28;20681;-64
2024/02/05 01:30:39;;;;;;;14.73;10.97;;;;;;;;;;5014677;28;20209;-64
2024/02/05 01:33:06;;;;;;;14.13;10.03;;;;;;;;;;5013732;28;20230;-64
2024/02/05 01:35:33;;;;;;;17.20;10.93;;;;;;;;;;5014616;28;20204;-64
2024/02/05 01:38:02;;;;;;;16.50;10.87;;;;;;;;;;5014867;28;20202;-64
2024/02/05 01:40:29;;;;;;;16.93;12.50;;;;;;;;;;5006826;28;20201;-64
2024/02/05 01:42:56;;;;;;;20.90;15.17;;;;;;;;;;4994054;28;20226;-64
2024/02/05 01:45:23;;;;;;;26.43;16.23;;;3.10;99.90;;;;;;4995248;28;20256;-64
2024/02/05 01:47:50;;;;;;;24.20;14.97;;;;;;;;;;4992793;28;20208;-64
2024/02/05 01:50:19;;;;;;;21.77;14.63;;;;;;;;;;4994708;28;20213;-64
2024/02/05 01:52:47;;;;;;;21.77;13.53;;;;;;;;;;4992561;28;20228;-64
2024/02/05 01:55:18;;;;;;;18.07;13.07;;;;;;;;;;4995841;28;20206;-64
2024/02/05 01:57:45;;;;;;;18.17;12.73;;;;;;;;;;5003077;28;20200;-64
2024/02/05 02:00:14;;;;;;;14.10;10.27;;;;;;;;;;5015132;28;20204;-64
2024/02/05 02:02:42;;;;;;;18.77;12.27;;;;;;;;;;5013979;28;20219;-64
2024/02/05 02:05:09;;;;;;;15.17;11.53;;;;;;;;;;5015034;28;20203;-64
2024/02/05 02:07:37;;;;;;;17.70;11.37;;;;;;;;;;5012757;28;20210;-64
2024/02/05 02:10:04;;;;;;;15.80;11.37;;;;;;;;;;5014106;28;20210;-64
2024/02/05 02:12:33;;;;;;;19.13;12.87;;;;;;;;;;5013386;28;20229;-63
2024/02/05 02:15:00;;;;;;;17.93;12.37;;;;;;;;;;5012696;28;20197;-64
2024/02/05 02:17:30;;;;;;;16.33;11.30;;;;;;;;;;5013781;28;20205;-64
2024/02/05 02:19:57;;;;;;;19.63;12.53;;;;;;;;;;5013951;28;20209;-64
2024/02/05 02:22:33;;;;;;;17.70;11.70;;;;;;;;;;5013053;28;20263;-64
2024/02/05 02:25:02;;;;;;;15.77;11.87;;;;;;;;;;5013636;28;20247;-64
2024/02/05 02:27:30;;;;;;;15.87;11.23;;;;;;;;;;5013672;28;20700;-64
2024/02/05 02:29:58;;;;;;;14.83;10.90;;;;;;;;;;5013562;28;20577;-64
2024/02/05 02:32:32;;;;;;;15.43;11.70;;;;;;;;;;5003910;28;20640;-64
2024/02/05 02:35:00;;;;;;;17.80;9.73;;;;;;;;;;4975277;28;20264;-64
2024/02/05 02:37:33;;;;;;;15.60;11.20;;;2.10;99.90;;;;;;4974735;28;20210;-64
2024/02/05 02:40:05;;;;;;;16.50;10.80;;;;;;;;;;4974407;28;20206;-64
2024/02/05 02:42:34;;;;;;;15.83;9.83;;;;;;;;;;4974167;28;20232;-64
2024/02/05 02:45:02;;;;;;;16.43;10.73;;;;;;;;;;4974484;28;20207;-63
2024/02/05 02:47:29;;;;;;;13.47;9.87;;;;;;;;;;4978659;28;20209;-64
2024/02/05 02:49:56;;;;;;;18.47;10.60;;;;;;;;;;4995415;28;20206;-64
2024/02/05 02:52:23;;;;;;;12.17;8.80;;;;;;;;;;4992947;28;20249;-64
2024/02/05 02:54:51;;;;;;;16.50;10.93;;;;;;;;;;4993605;28;20660;-64
2024/02/05 02:57:20;;;;;;;18.43;11.80;;;;;;;;;;4993619;28;20205;-64
2024/02/05 02:59:49;;;;;;;17.43;11.23;;;;;;;;;;4993517;28;20207;-64
2024/02/05 03:02:16;;;;;;;14.23;9.90;;;;;;;;;;4992694;28;20198;-64
2024/02/05 03:04:43;;;;;;;12.20;9.57;;;;;;;;;;4993744;28;20272;-64
2024/02/05 03:07:10;;;;;;;15.97;9.80;;;;;;;;;;4993225;28;20206;-64
2024/02/05 03:09:37;;;;;;;13.77;10.00;;;;;;;;;;4993132;28;20769;-64
2024/02/05 03:12:05;;;;;;;16.10;10.53;;;;;;;;;;4992767;28;20280;-64
2024/02/05 03:14:32;;;;;;;18.67;11.97;;;;;;;;;;4993424;28;20205;-64
2024/02/05 03:17:02;;;;;;;16.57;11.17;;;;;;;;;;4992939;28;20233;-64
2024/02/05 03:19:29;;;;;;;14.83;9.83;;;;;;;;;;4992769;28;20206;-64
2024/02/05 03:21:57;;;;;;;14.07;9.87;;;;;;;;;;4993448;28;20257;-64
2024/02/05 03:24:24;;;;;;;17.27;10.63;;;;;;;;;;5008049;28;20218;-64
2024/02/05 03:26:51;;;;;;;17.10;10.93;;;;;;;;;;5012395;28;20773;-64
2024/02/05 03:29:18;;;;;;;14.97;10.40;;;;;;;;;;5012624;28;20210;-64
2024/02/05 03:31:46;;;;;;;15.23;10.27;;;;;;;;;;5012348;28;20206;-64
2024/02/05 03:34:16;;;;;;;15.70;10.80;;;;;;;;;;5011193;28;20307;-64
2024/02/05 03:36:43;;;;;;;13.60;10.73;;;;;;;;;;4999559;28;20700;-64
2024/02/05 03:39:10;;;;;;;15.97;10.60;;;;;;;;;;4994305;28;20202;-63
2024/02/05 03:41:37;;;;;;;12.53;10.13;;;;;;;;;;4982739;28;20207;-64
2024/02/05 03:44:04;;;;;;;12.37;9.77;;;;;;;;;;4972423;28;20598;-63
2024/02/05 03:46:32;;;;;;;9.67;8.43;;;;;;;;;;4973228;28;20202;-64
2024/02/05 03:48:59;;;;;;;13.37;10.23;;;;;;;;;;4973086;28;20679;-63
2024/02/05 03:51:27;;;;;;;13.63;10.20;;;2.40;99.90;;;;;;4973282;28;20272;-64
2024/02/05 03:53:54;;;;;;;12.97;9.83;;;;;;;;;;4989339;28;20225;-64
2024/02/05 03:56:21;;;;;;;15.53;10.50;;;;;;;;;;4994167;28;20207;-64
2024/02/05 03:58:49;;;;;;;13.83;10.50;;;1.90;99.90;;;;;;4990448;28;20213;-64
2024/02/05 04:01:16;;;;;;;14.53;9.70;;;2.00;99.90;;;;;;4992380;28;20249;-64
2024/02/05 04:03:43;;;;;;;13.10;8.90;;;;;;;;;;4991475;28;20221;-64
2024/02/05 04:06:10;;;;;;;14.30;9.80;;;1.90;99.90;;;;;;4992576;28;20236;-64
2024/02/05 04:08:38;;;;;;;14.20;9.83;;;1.90;99.90;;;;;;4991998;28;20747;-64
2024/02/05 04:11:06;;;;;;;17.47;10.70;;;;;;;;;;4972855;28;20559;-64
2024/02/05 04:13:33;;;;;;;13.17;10.27;;;;;;;;;;4972070;28;20233;-64
2024/02/05 04:16:00;;;;;;;13.13;9.80;;;;;;;;;;4972795;28;20618;-64
2024/02/05 04:18:27;;;;;;;19.10;10.53;;;1.80;99.90;;;;;;4973146;28;20264;-64
2024/02/05 04:20:56;;;;;;;16.00;9.90;;;;;;;;;;4973101;28;20665;-64
2024/02/05 04:23:25;;;;;;;14.47;10.43;;;;;;;;;;4972185;28;20227;-64
2024/02/05 04:25:54;;;;;;;14.50;10.03;;;;;;;;;;4981522;28;20576;-64
2024/02/05 04:28:22;;;;;;;13.40;9.53;;;;;;;;;;5011801;28;20673;-64
2024/02/05 04:30:50;;;;;;;17.67;11.13;;;;;;;;;;5014314;28;20259;-64
2024/02/05 04:33:17;;;;;;;12.43;9.13;;;1.70;99.90;;;;;;5015050;28;20615;-64
2024/02/05 04:35:44;;;;;;;16.87;11.10;;;1.70;99.90;;;;;;5015701;28;20227;-64
2024/02/05 04:38:11;;;;;;;14.70;9.10;;;;;;;;;;5015744;28;20210;-64
2024/02/05 04:40:38;;;;;;;16.60;10.40;;;1.70;99.90;;;;;;5016073;28;20259;-64
2024/02/05 04:43:06;;;;;;;11.17;8.83;;;1.60;99.90;;;;;;5014721;28;20790;-64
2024/02/05 04:45:33;;;;;;;12.47;8.90;;;;;;;;;;5015866;28;20280;-64
2024/02/05 04:48:01;;;;;;;14.37;10.03;;;;;;;;;;5015672;28;20259;-64
2024/02/05 04:50:28;;;;;;;18.57;10.23;;;;;;;;;;5015430;28;20209;-64
2024/02/05 04:52:55;;;;;;;11.93;10.53;;;;;;;;;;5014383;28;20230;-63
2024/02/05 04:55:22;;;;;;;16.67;10.47;;;;;;;;;;5015115;28;20256;-63
2024/02/05 04:57:50;;;;;;;14.97;9.70;;;;;;;;;;5015258;28;20592;-63
2024/02/05 05:00:21;;;;;;;17.97;10.67;;;;;;;;;;5015265;28;20209;-63
2024/02/05 05:02:48;;;;;;;22.57;10.43;;;;;;;;;;5014362;28;20426;-64
2024/02/05 05:05:16;;;;;;;14.37;10.53;;;;;;;;;;5015238;28;20300;-63
2024/02/05 05:07:43;;;;;;;17.00;10.57;;;;;;;;;;5016033;28;20201;-62
2024/02/05 05:10:10;;;;;;;13.77;10.00;;;;;;;;;;5014839;28;20209;-63
2024/02/05 05:12:38;;;;;;;19.67;12.00;;;;;;;;;;5014360;28;20252;-63
2024/02/05 05:15:05;;;;;;;15.47;10.80;;;;;;;;;;5014907;28;20375;-63
2024/02/05 05:17:34;;;;;;;12.60;9.67;;;;;;;;;;5014912;28;20688;-63
2024/02/05 05:20:01;;;;;;;12.40;9.57;;;;;;;;;;5014777;28;20663;-63
2024/02/05 05:22:28;;;;;;;13.70;10.17;;;;;;;;;;5013936;28;20700;-63
2024/02/05 05:24:55;;;;;;;17.60;10.73;;;;;;;;;;5014951;28;20357;-63
2024/02/05 05:27:23;;;;;;;14.47;10.47;;;;;;;;;;5004408;28;20200;-63
2024/02/05 05:29:50;;;;;;;18.17;12.17;;;;;;;;;;5014830;28;20202;-63
2024/02/05 05:32:18;;;;;;;17.93;11.20;;;;;;;;;;5013797;28;20697;-63
2024/02/05 05:34:46;;;;;;;16.53;11.77;;;;;;;;;;5014508;28;20209;-63
2024/02/05 05:37:13;;;;;;;19.50;12.13;;;;;;;;;;5014600;28;20202;-63
2024/02/05 05:39:40;;;;;;;18.70;11.73;;;;;;;;;;5013344;28;20217;-63
2024/02/05 05:42:08;;;;;;;14.33;11.40;;;;;;;;;;4993863;28;20271;-63
2024/02/05 05:44:35;;;;;;;15.20;10.27;;;;;;;;;;4994853;28;20201;-63
2024/02/05 05:47:03;;;;;;;17.87;11.03;;;;;;;;;;4994911;28;20205;-63
2024/02/05 05:49:30;;;;;;;13.83;10.37;;;;;;;;;;4994865;28;20259;-63
2024/02/05 05:51:59;;;;;;;13.17;10.23;;;;;;;;;;4994186;28;20251;-63
2024/02/05 05:54:26;;;;;;;13.30;9.07;;;;;;;;;;4994012;28;20301;-62
2024/02/05 05:56:53;;;;;;;14.07;10.00;;;;;;;;;;4994714;28;20562;-63
2024/02/05 05:59:20;;;;;;;14.23;9.73;;;;;;;;;;4992690;28;20256;-63
2024/02/05 06:01:48;;;;;;;17.57;10.63;;;;;;;;;;4994718;28;20236;-63
2024/02/05 06:04:15;;;;;;;18.17;10.63;;;;;;;;;;4993517;28;20270;-63
2024/02/05 06:06:42;;;;;;;20.20;13.33;;;;;;;;;;4995036;28;20268;-63
2024/02/05 06:09:12;;;;;;;16.37;12.93;;;;;;;;;;5000281;28;20202;-63
2024/02/05 06:11:39;;;;;;;23.17;14.80;;;;;;;;;;5014187;28;20236;-63
2024/02/05 06:14:06;;;;;;;26.07;17.10;;;;;;;;;;5013461;28;20229;-63
2024/02/05 06:16:34;;;;;;;26.23;15.43;;;;;;;;;;5012478;28;21662;-63
2024/02/05 06:19:01;;;;;;;14.47;12.07;;;;;;;;;;4995093;28;20198;-63
2024/02/05 06:21:28;;;;;;;16.17;12.17;;;;;;;;;;4996714;28;20209;-63
2024/02/05 06:23:55;;;;;;;18.93;13.07;;;;;;;;;;4993423;28;20225;-63
2024/02/05 06:26:24;;;;;;;16.13;11.30;;;;;;;;;;4994060;28;20205;-63
2024/02/05 06:28:51;;;;;;;17.23;12.10;;;1.40;99.90;;;;;;4994118;28;20202;-63
2024/02/05 06:31:18;;;;;;;19.10;11.70;;;;;;;;;;4993849;28;20683;-63
2024/02/05 06:33:47;;;;;;;23.13;11.57;;;;;;;;;;5004541;28;20221;-63
2024/02/05 06:36:15;;;;;;;15.83;9.27;;;;;;;;;;5013530;28;20219;-62
2024/02/05 06:38:42;;;;;;;13.23;9.93;;;;;;;;;;5013358;28;20251;-63
2024/02/05 06:41:09;;;;;;;19.20;12.90;;;;;;;;;;5013629;28;20241;-62
2024/02/05 06:43:39;;;;;;;23.90;15.67;;;;;;;;;;5012509;28;20284;-63
2024/02/05 06:46:07;;;;;;;21.20;14.47;;;;;;;;;;5013123;28;20251;-63
2024/02/05 06:48:34;;;;;;;21.50;13.77;;;;;;;;;;4997558;28;20628;-63
2024/02/05 06:51:02;;;;;;;18.63;13.70;;;;;;;;;;4993758;28;20287;-63
2024/02/05 06:53:29;;;;;;;20.27;12.37;;;;;;;;;;4991748;28;20233;-63
2024/02/05 06:55:56;;;;;;;17.73;12.50;;;;;;;;;;4993473;28;20638;-63
2024/02/05 06:58:23;;;;;;;15.23;11.63;;;;;;;;;;4993365;28;20202;-63
2024/02/05 07:00:52;;;;;;;18.77;12.23;;;;;;;;;;4993575;28;20630;-63
2024/02/05 07:03:21;;;;;;;16.83;12.47;;;;;;;;;;4991801;28;20247;-63
2024/02/05 07:05:48;;;;;;;18.80;12.90;;;;;;;;;;4993337;28;20741;-63
2024/02/05 07:08:15;;;;;;;19.30;13.73;;;;;;;;;;4994035;28;20257;-63
2024/02/05 07:10:44;;;;;;;18.83;14.47;;;;;;;;;;4997085;28;20264;-63
2024/02/05 07:13:11;;;;;;;18.40;13.43;;;;;;;;;;4992070;28;20228;-63
2024/02/05 07:15:38;;;;;;;23.17;14.80;;;;;;;;;;4993322;28;20241;-63
2024/02/05 07:18:07;;;;;;;18.30;12.93;;;;;;;;;;4993158;28;20205;-63
2024/02/05 07:20:34;;;;;;;14.00;11.93;;;;;;;;;;4992819;28;20206;-63
2024/02/05 07:23:01;;;;;;;19.10;13.10;;;;;;;;;;4993475;28;20225;-63
2024/02/05 07:25:29;;;;;;;18.03;12.03;;;;;;;;;;4995011;28;20205;-63
2024/02/05 07:27:56;;;;;;;15.93;11.20;;;;;;;;;;4994892;28;20201;-63
2024/02/05 07:30:23;;;;;;;16.20;12.40;;;;;;;;;;4993013;28;20203;-63
2024/02/05 07:32:50;;;;;;;13.53;11.57;;;;;;;;;;4991986;28;20222;-63
2024/02/05 07:35:22;;;;;;;16.60;11.93;;;;;;;;;;4992805;28;20747;-63
2024/02/05 07:37:49;;;;;;;16.63;10.57;;;;;;;;;;4992825;28;20359;-63
2024/02/05 07:40:16;;;;;;;13.77;11.97;;;;;;;;;;4992573;28;20732;-63
2024/02/05 07:42:43;;;;;;;16.30;10.23;;;;;;;;;;4991984;28;20225;-63
2024/02/05 07:45:11;;;;;;;19.63;12.53;;;;;;;;;;4992662;28;20205;-63
2024/02/05 07:47:38;;;;;;;20.10;12.50;;;;;;;;;;4992631;28;20253;-63
2024/02/05 07:50:08;;;;;;;15.40;11.27;;;;;;;;;;4992841;28;20209;-63
2024/02/05 07:52:36;;;;;;;15.30;10.47;;;;;;;;;;4989455;28;20320;-63
2024/02/05 07:55:04;;;;;;;16.13;10.83;;;;;;;;;;5003178;28;20296;-63
2024/02/05 07:57:31;;;;;;;23.63;11.73;;;;;;;;;;4992543;28;20261;-63
2024/02/05 07:59:58;;;;;;;12.70;10.63;;;;;;;;;;4992475;28;20585;-63
2024/02/05 08:02:26;;;;;;;15.10;10.90;;;;;;;;;;4991534;28;20246;-62
2024/02/05 08:04:54;;;;;;;17.37;12.63;;;;;;;;;;4991045;28;20195;-63
2024/02/05 08:07:24;;;;;;;20.00;12.80;;;;;;;;;;4992325;28;20210;-63
2024/02/05 08:09:52;;;;;;;19.83;12.20;;;;;;;;;;4991619;28;20273;-63
2024/02/05 08:12:22;;;;;;;15.57;11.37;;;;;;;;;;4991568;28;20690;-63
2024/02/05 08:14:49;;;;;;;20.77;13.03;;;;;;;;;;4991802;28;20308;-63
2024/02/05 08:17:20;;;;;;;18.23;12.97;;;;;;;;;;4992372;28;20262;-63
2024/02/05 08:19:47;;;;;;;16.80;13.23;;;;;;;;;;4992364;28;20259;-63
2024/02/05 08:22:14;;;;;;;19.67;13.40;;;;;;;;;;4991522;28;20240;-63
2024/02/05 08:24:42;;;;;;;17.50;12.30;;;;;;;;;;5004877;28;20198;-63
2024/02/05 08:27:10;;;;;;;19.17;12.57;;;;;;;;;;5011863;28;20263;-63
2024/02/05 08:29:37;;;;;;;27.47;13.13;;;;;;;;;;5011713;28;20681;-63
2024/02/05 08:32:05;;;;;;;33.90;12.50;;;;;;;;;;4990729;28;20205;-63
2024/02/05 08:34:32;;;;;;;34.73;16.90;;;;;;;;;;4991332;28;20288;-63
2024/02/05 08:36:59;;;;;;;29.97;14.63;;;;;;;;;;4992392;28;20255;-63
2024/02/05 08:39:26;;;;;;;19.73;13.77;;;;;;;;;;4991988;28;20678;-63
2024/02/05 08:41:54;;;;;;;22.13;12.77;;;;;;;;;;4991881;28;20265;-63
2024/02/05 08:44:25;;;;;;;18.47;13.13;;;;;;;;;;5003484;28;20270;-64
2024/02/05 08:46:53;;;;;;;16.27;12.77;;;;;;;;;;5011615;28;20204;-63
2024/02/05 08:49:20;;;;;;;18.27;12.57;;;;;;;;;;5011656;28;20359;-63
2024/02/05 08:51:48;;;;;;;17.27;12.63;;;;;;;;;;4994168;28;20203;-63
2024/02/05 08:54:15;;;;;;;14.80;12.50;;;;;;;;;;4990824;28;20663;-63
2024/02/05 08:56:42;;;;;;;17.67;11.30;;;;;;;;;;4991845;28;20590;-65
2024/02/05 08:59:09;;;;;;;16.93;11.97;;;;;;;;;;4991891;28;20260;-63
2024/02/05 09:01:38;;;;;;;17.40;11.97;;;;;;;;;;4991404;28;20202;-63
2024/02/05 09:04:05;;;;;;;19.80;13.60;;;;;;;;;;4991136;28;20221;-64
2024/02/05 09:06:32;;;;;;;19.50;14.57;;;;;;;;;;4991820;28;20232;-63
2024/02/05 09:08:59;;;;;;;17.73;13.60;;;;;;;;;;4991872;28;20272;-63
2024/02/05 09:11:31;;;;;;;23.40;13.63;;;;;;;;;;4991588;28;20305;-64
2024/02/05 09:13:58;;;;;;;24.23;14.10;;;;;;;;;;5008608;28;20222;-64
2024/02/05 09:16:25;;;;;;;21.77;14.47;;;;;;;;;;5013264;28;20206;-63
2024/02/05 09:18:54;;;;;;;20.50;15.03;;;;;;;;;;5014737;28;20241;-63
2024/02/05 09:21:21;;;;;;;19.10;13.60;;;;;;;;;;5001934;28;20200;-63
2024/02/05 09:23:48;;;;;;;17.50;12.33;;;;;;;;;;4994530;28;20726;-63
2024/02/05 09:26:16;;;;;;;20.13;11.87;;;;;;;;;;4995132;28;20206;-64
2024/02/05 09:28:44;;;;;;;18.13;12.40;;;;;;;;;;4994998;28;20254;-64
2024/02/05 09:31:11;;;;;;;14.87;10.57;;;;;;;;;;4994811;28;20208;-63
2024/02/05 09:33:39;;;;;;;17.40;11.50;;;;;;;;;;4994687;28;20271;-64
2024/02/05 09:36:08;;;;;;;19.37;11.43;;;;;;;;;;4994825;28;20262;-64
2024/02/05 09:38:35;;;;;;;18.40;11.50;;;;;;;;;;4994841;28;20210;-63
2024/02/05 09:41:05;;;;;;;14.17;11.43;;;;;;;;;;4994417;28;20202;-64
2024/02/05 09:43:32;;;;;;;13.43;11.27;;;;;;;;;;4993945;28;20309;-64
2024/02/05 09:46:04;;;;;;;17.70;12.03;;;;;;;;;;4994945;28;20206;-63
2024/02/05 09:48:33;;;;;;;12.97;11.13;;;;;;;;;;4994864;28;20298;-64
2024/02/05 09:51:00;;;;;;;14.67;11.07;;;;;;;;;;4995832;28;20199;-63
2024/02/05 09:53:30;;;;;;;13.77;9.87;;;;;;;;;;4993541;28;20239;-63
2024/02/05 09:55:57;;;;;;;10.67;8.87;;;;;;;;;;4994512;28;20315;-64
2024/02/05 09:58:24;;;;;;;13.30;9.53;;;;;;;;;;4994635;28;20262;-64
2024/02/05 10:00:52;;;;;;;11.73;9.50;;;;;;;;;;4994461;28;20259;-64
2024/02/05 10:03:19;;;;;;;18.07;9.80;;;;;;;;;;4993430;28;20226;-64
2024/02/05 10:05:47;;;;;;;12.80;9.90;;;;;;;;;;4994434;28;20254;-64
2024/02/05 10:08:15;;;;;;;17.63;9.77;;;;;;;;;;4992417;28;20206;-61
2024/02/05 10:10:45;;;;;;;10.70;9.57;;;;;;;;;;4994222;28;20223;-63
2024/02/05 10:13:13;;;;;;;17.33;11.13;;;;;;;;;;4991356;28;20224;-63
2024/02/05 10:15:41;;;;;;;11.93;9.50;;;;;;;;;;4994301;28;20274;-62
2024/02/05 10:18:10;;;;;;;19.57;11.00;;;;;;;;;;4994136;28;20258;-62
2024/02/05 10:20:39;;;;;;;11.43;9.77;;;;;;;;;;4993763;28;20200;-63
2024/02/05 10:23:06;;;;;;;10.23;8.33;;;;;;;;;;4993069;28;20230;-62
2024/02/05 10:25:34;;;;;;;16.97;9.87;;;;;;;;;;4994139;28;20291;-63
2024/02/05 10:28:03;;;;;;;12.73;9.07;;;;;;;;;;4992902;28;20683;-63
2024/02/05 10:30:31;;;;;;;16.50;9.07;;;;;;;;;;4993600;28;20245;-62
2024/02/05 10:32:58;;;;;;;8.83;7.60;;;;;;;;;;4992822;28;20787;-63
2024/02/05 10:35:25;;;;;;;9.97;7.10;;;;;;;;;;4993596;28;20227;-63
2024/02/05 10:37:52;;;;;;;13.43;8.70;;;;;;;;;;4993997;28;20273;-63
2024/02/05 10:40:20;;;;;;;9.57;8.57;;;;;;;;;;4994575;28;20258;-62
2024/02/05 10:42:47;;;;;;;12.30;9.03;;;;;;;;;;4992784;28;20227;-63
2024/02/05 10:45:16;;;;;;;12.70;9.87;;;;;;;;;;4993805;28;20278;-63
2024/02/05 10:47:44;;;;;;;11.93;8.87;;;;;;;;;;4993495;28;20610;-63
2024/02/05 10:50:13;;;;;;;11.27;9.37;;;;;;;;;;4993155;28;20735;-62
2024/02/05 10:52:41;;;;;;;12.83;8.97;;;;;;;;;;4973256;28;20232;-63
2024/02/05 10:55:08;;;;;;;8.70;7.83;;;;;;;;;;4974089;28;20230;-64
2024/02/05 10:57:38;;;;;;;9.43;7.67;;;;;;;;;;4975865;28;20211;-63
2024/02/05 11:00:07;;;;;;;8.67;7.63;;;;;;;;;;4974162;28;20291;-64
2024/02/05 11:02:38;;;;;;;8.90;7.53;;;;;;;;;;4991819;28;20231;-64
2024/02/05 11:05:06;;;;;;;10.37;7.83;;;;;;;;;;4993493;28;20196;-64
2024/02/05 11:07:35;;;;;;;9.23;6.73;;;;;;;;;;4993346;28;20206;-63
2024/02/05 11:10:08;;;;;;;17.47;7.10;;;;;;;;;;4973485;28;20203;-63
2024/02/05 11:12:36;;;;;;;8.20;6.63;;;;;;;;;;4971936;28;20227;-63
2024/02/05 11:15:05;;;;;;;10.90;7.13;;;;;;;;;;4973490;28;20244;-63
2024/02/05 11:17:33;;;;;;;8.37;5.97;;;;;;;;;;4973639;28;20206;-64
2024/02/05 11:20:03;;;;;;;10.90;6.80;;;;;;;;;;4973654;28;20261;-64
2024/02/05 11:22:32;;;;;;;6.77;6.10;;;;;;;;;;4972890;28;20235;-64
2024/02/05 11:24:59;;;;;;;6.83;6.13;;;;;;;;;;4973523;28;20198;-64
2024/02/05 11:27:26;;;;;;;11.87;6.43;;;;;;;;;;4973431;28;20683;-63
2024/02/05 11:29:53;;;;;;;11.10;6.60;;;;;;;;;;4973346;28;20691;-64
2024/02/05 11:32:30;;;;;;;6.70;5.93;;;;;;;;;;4972837;28;20205;-63
2024/02/05 11:34:57;;;;;;;10.60;6.90;;;;;;;;;;4973365;28;20314;-63
2024/02/05 11:37:27;;;;;;;11.37;6.33;;;;;;;;;;4973449;28;20294;-64
2024/02/05 11:39:58;;;;;;;7.57;6.17;;;10.20;99.90;;;;;;4972980;28;20290;-63
2024/02/05 11:42:27;;;;;;;12.73;7.30;;;10.20;99.90;;;;;;4972509;28;20738;-63
2024/02/05 11:44:57;;;;;;;11.50;7.13;;;10.30;99.90;;;;;;4973218;28;20206;-63
2024/02/05 11:47:24;;;;;;;7.33;6.43;;;10.10;99.90;;;;;;4973481;28;20305;-64
2024/02/05 11:49:52;;;;;;;10.80;7.07;;;;;;;;;;4973122;28;20210;-64
2024/02/05 11:52:22;;;;;;;9.83;6.37;;;10.10;99.90;;;;;;4972649;28;20701;-63
2024/02/05 11:54:53;;;;;;;9.07;7.17;;;10.10;99.90;;;;;;4973246;28;20231;-64
2024/02/05 11:57:20;;;;;;;10.83;6.70;;;10.10;99.90;;;;;;4973253;28;20266;-64
2024/02/05 11:59:47;;;;;;;7.80;5.53;;;;;;;;;;4973179;28;20587;-63
2024/02/05 12:02:18;;;;;;;11.80;7.00;;;;;;;;;;4972352;28;20289;-64
2024/02/05 12:04:47;;;;;;;15.07;6.67;;;;;;;;;;4973339;28;20200;-64
2024/02/05 12:07:15;;;;;;;7.30;6.60;;;;;;;;;;4973230;28;20230;-64
2024/02/05 12:09:42;;;;;;;15.13;7.33;;;;;;;;;;4972837;28;20258;-64
2024/02/05 12:12:11;;;;;;;10.40;6.53;;;;;;;;;;4972065;28;20266;-64
2024/02/05 12:14:38;;;;;;;10.87;7.50;;;;;;;;;;4970628;28;20220;-63
2024/02/05 12:17:11;;;;;;;11.20;7.07;;;;;;;;;;4973374;28;20204;-63
2024/02/05 12:19:38;;;;;;;8.23;6.33;;;;;;;;;;4970689;28;20210;-64
2024/02/05 12:22:05;;;;;;;9.10;7.00;;;;;;;;;;4972160;28;20207;-63
2024/02/05 12:24:33;;;;;;;10.70;7.30;;;;;;;;;;4972661;28;20281;-63
2024/02/05 12:27:01;;;;;;;9.53;8.30;;;;;;;;;;4972902;28;20207;-63
2024/02/05 12:29:29;;;;;;;9.70;7.43;;;;;;;;;;4973126;28;20678;-64
2024/02/05 12:32:04;;;;;;;12.83;7.37;;;;;;;;;;4972613;28;20211;-63
2024/02/05 12:34:31;;;;;;;9.93;7.17;;;;;;;;;;4972847;28;20309;-64
2024/02/05 12:36:58;;;;;;;10.40;6.80;;;;;;;;;;4972970;28;20627;-63
2024/02/05 12:39:26;;;;;;;7.27;6.57;;;;;;;;;;4972595;28;20206;-64
2024/02/05 12:41:53;;;;;;;8.37;7.00;;;;;;;;;;4972639;28;20594;-63
2024/02/05 12:44:21;;;;;;;11.30;7.10;;;;;;;;;;4971630;28;20665;-64
2024/02/05 12:46:49;;;;;;;9.47;8.23;;;;;;;;;;4972834;28;20197;-64
2024/02/05 12:49:18;;;;;;;10.73;7.10;;;;;;;;;;4972686;28;20201;-64
2024/02/05 12:51:45;;;;;;;9.97;7.33;;;;;;;;;;4974937;28;20209;-64
2024/02/05 12:54:13;;;;;;;10.90;6.97;;;;;;;;;;4983302;28;20225;-64
2024/02/05 12:56:40;;;;;;;11.70;7.67;;;;;;;;;;5009258;28;20224;-63
2024/02/05 12:59:08;;;;;;;12.33;7.50;;;;;;;;;;5015116;28;20213;-63
2024/02/05 13:01:35;;;;;;;11.03;7.27;;;;;;;;;;5015559;28;20205;-64
2024/02/05 13:04:04;;;;;;;9.63;8.53;;;;;;;;;;5005912;28;20281;-64
2024/02/05 13:06:31;;;;;;;11.77;7.87;;;;;;;;;;4997035;28;20210;-64
2024/02/05 13:09:00;;;;;;;10.27;8.10;;;;;;;;;;4995545;28;20202;-64
2024/02/05 13:11:30;;;;;;;8.53;6.63;;;;;;;;;;4995443;28;20288;-64
2024/02/05 13:13:57;;;;;;;8.90;7.73;;;;;;;;;;5001848;28;20244;-64
2024/02/05 13:16:25;;;;;;;9.23;7.17;;;;;;;;;;5014732;28;20278;-63
2024/02/05 13:18:52;;;;;;;11.60;7.50;;;;;;;;;;5015208;28;20291;-64
2024/02/05 13:21:21;;;;;;;8.97;8.13;;;;;;;;;;5017008;28;20295;-63
2024/02/05 13:23:48;;;;;;;8.90;7.97;;;;;;;;;;5007026;28;20292;-64
2024/02/05 13:26:15;;;;;;;12.03;7.10;;;;;;;;;;4995053;28;20584;-64
2024/02/05 13:28:43;;;;;;;8.10;7.37;;;;;;;;;;4995352;28;20203;-64
2024/02/05 13:31:12;;;;;;;13.23;7.53;;;;;;;;;;4995093;28;20206;-63
2024/02/05 13:33:39;;;;;;;10.23;7.90;;;;;;;;;;4994120;28;20222;-64
2024/02/05 13:36:07;;;;;;;11.93;8.47;;;;;;;;;;4993361;28;20269;-63
2024/02/05 13:38:35;;;;;;;9.48;8.27;;;;;;;;;;4973528;28;20438;-64
2024/02/05 13:41:03;;;;;;;9.93;7.87;;;;;;;;;;4975347;28;20261;-62
2024/02/05 13:43:30;;;;;;;12.97;7.77;;;;;;;;;;4994403;28;20242;-62
2024/02/05 13:46:02;;;;;;;10.47;8.30;;;;;;;;;;4996926;28;20256;-62
2024/02/05 13:48:31;;;;;;;12.27;7.27;;;;;;;;;;4994502;28;20287;-62
2024/02/05 13:50:58;;;;;;;10.67;7.50;;;;;;;;;;4995496;28;20202;-63
2024/02/05 13:53:25;;;;;;;11.80;7.57;;;;;;;;;;4993322;28;20239;-62
2024/02/05 13:55:53;;;;;;;11.87;7.87;;;;;;;;;;4994086;28;20276;-63
2024/02/05 13:58:20;;;;;;;14.30;9.13;;;;;;;;;;4994429;28;20250;-62
2024/02/05 14:00:47;;;;;;;10.27;8.17;;;;;;;;;;4994303;28;20206;-62
2024/02/05 14:03:14;;;;;;;12.07;9.57;;;;;;;;;;4993183;28;20696;-62
2024/02/05 14:05:42;;;;;;;11.70;9.63;;;;;;;;;;4993776;28;20691;-62
2024/02/05 14:08:09;;;;;;;15.73;10.10;;;;;;;;;;5005119;28;20267;-62
2024/02/05 14:10:36;;;;;;;16.10;9.70;;;;;;;;;;4997639;28;20202;-62
2024/02/05 14:13:05;;;;;;;14.53;9.60;;;;;;;;;;4998297;28;20275;-63
2024/02/05 14:15:32;;;;;;;10.30;8.03;;;;;;;;;;5002145;28;20705;-63
2024/02/05 14:18:00;;;;;;;13.10;9.07;;;;;;;;;;4992344;28;20199;-63
2024/02/05 14:20:27;;;;;;;14.73;10.17;;;;;;;;;;5005548;28;20737;-63